Time;durP1;ratioP1;P1;durP2;ratioP2;P2;SDS_P1;SDS_P2;PMS_P1;PMS_P2;Temp;Humidity;BMP_temperature;BMP_pressure;BME280_temperature;BME280_humidity;BME280_pressure;Samples;Min_cycle;Max_cycle;Signal;HPM_P1;HPM_P2
2021/08/24 00:00:31;;;;;;;9.50;5.40;;;16.00;99.90;;;;;;5009847;28;25068;-77
2021/08/24 00:02:59;;;;;;;7.82;4.97;;;16.00;99.90;;;;;;5011198;28;25095;-74
2021/08/24 00:05:34;;;;;;;11.30;5.22;;;16.00;99.90;;;;;;5009616;28;25062;-74
2021/08/24 00:07:59;;;;;;;7.50;5.00;;;16.00;99.90;;;;;;5009481;28;25120;-74
2021/08/24 00:10:40;;;;;;;7.13;5.28;;;16.00;99.90;;;;;;5008828;28;25111;-73
2021/08/24 00:13:06;;;;;;;8.05;4.95;;;15.90;99.90;;;;;;5009051;28;25112;-75
2021/08/24 00:15:34;;;;;;;7.55;4.72;;;15.80;99.90;;;;;;5012904;28;25080;-75
2021/08/24 00:18:00;;;;;;;14.40;6.72;;;15.80;99.90;;;;;;5010600;28;25079;-74
2021/08/24 00:20:30;;;;;;;9.57;4.22;;;15.70;99.90;;;;;;5008981;28;25131;-77
2021/08/24 00:23:01;;;;;;;6.95;4.97;;;15.70;99.90;;;;;;5007879;28;25059;-73
2021/08/24 00:25:28;;;;;;;7.45;5.25;;;15.80;99.90;;;;;;5010536;28;25069;-74
2021/08/24 00:27:54;;;;;;;8.27;4.35;;;15.70;99.90;;;;;;5006175;28;25122;-75
2021/08/24 00:30:20;;;;;;;8.23;4.90;;;15.60;99.90;;;;;;5008445;28;25059;-72
2021/08/24 00:32:45;;;;;;;10.80;4.97;;;15.50;99.90;;;;;;5007664;28;25075;-75
2021/08/24 00:35:11;;;;;;;5.28;4.00;;;15.50;99.90;;;;;;5010054;28;25072;-75
2021/08/24 00:37:37;;;;;;;6.72;5.20;;;15.70;99.90;;;;;;5007851;28;25085;-73
2021/08/24 00:40:05;;;;;;;8.07;4.90;;;15.70;99.90;;;;;;5008780;28;25083;-75
2021/08/24 00:42:30;;;;;;;6.32;5.22;;;15.70;99.90;;;;;;5009697;28;25117;-73
2021/08/24 00:44:57;;;;;;;11.07;5.00;;;15.70;99.90;;;;;;5008434;28;25161;-75
2021/08/24 00:47:26;;;;;;;7.00;5.50;;;15.60;99.90;;;;;;5008715;28;25074;-74
2021/08/24 00:49:58;;;;;;;9.38;5.40;;;15.60;99.90;;;;;;5008427;28;25095;-75
2021/08/24 00:52:24;;;;;;;7.88;4.88;;;15.50;99.90;;;;;;5009391;28;25139;-73
2021/08/24 00:54:50;;;;;;;6.75;4.85;;;15.50;99.90;;;;;;5009779;28;25182;-73
2021/08/24 00:57:22;;;;;;;6.40;4.35;;;15.50;99.90;;;;;;5007524;28;25060;-73
2021/08/24 00:59:49;;;;;;;8.50;4.93;;;15.50;99.90;;;;;;5003525;28;25080;-74
2021/08/24 01:02:17;;;;;;;8.68;4.60;;;15.60;99.90;;;;;;5006508;28;25113;-75
2021/08/24 01:04:46;;;;;;;9.00;5.13;;;15.50;99.90;;;;;;5007806;28;25065;-75
2021/08/24 01:07:26;;;;;;;9.50;5.00;;;15.50;99.90;;;;;;5005409;28;25113;-74
2021/08/24 01:10:30;;;;;;;6.85;4.85;;;15.50;99.90;;;;;;5008035;28;25142;-74
2021/08/24 01:13:12;;;;;;;6.13;4.43;;;15.50;99.90;;;;;;4976779;28;25062;-74
2021/08/24 01:15:45;;;;;;;8.57;4.80;;;15.40;99.90;;;;;;5008530;28;25169;-75
2021/08/24 01:18:18;;;;;;;12.40;4.90;;;15.30;99.90;;;;;;5010277;28;25063;-73
2021/08/24 01:21:14;;;;;;;8.73;4.97;;;15.50;99.90;;;;;;5009361;28;25125;-76
2021/08/24 01:23:55;;;;;;;5.65;4.10;;;15.50;99.90;;;;;;5004349;28;25113;-74
2021/08/24 01:26:37;;;;;;;7.45;4.32;;;15.40;99.90;;;;;;5006334;28;25066;-74
2021/08/24 01:29:44;;;;;;;6.90;4.85;;;15.20;99.90;;;;;;5009476;28;25089;-73
2021/08/24 01:32:33;;;;;;;9.98;4.22;;;15.20;99.90;;;;;;5000722;28;25071;-73
2021/08/24 01:35:06;;;;;;;8.40;4.25;;;15.20;99.90;;;;;;5011075;28;25133;-75
2021/08/24 01:37:59;;;;;;;5.57;4.03;;;15.20;99.90;;;;;;5009257;28;25094;-72
2021/08/24 01:40:39;;;;;;;6.85;4.68;;;15.40;99.90;;;;;;5008336;28;25090;-77
2021/08/24 01:43:09;;;;;;;4.80;4.15;;;15.30;99.90;;;;;;5012410;28;25055;-76
2021/08/24 01:45:40;;;;;;;9.15;4.93;;;15.20;99.90;;;;;;5013549;28;25075;-73
2021/08/24 01:48:28;;;;;;;7.75;4.63;;;15.10;99.90;;;;;;5018953;28;25129;-74
2021/08/24 01:51:00;;;;;;;7.55;3.85;;;15.10;99.90;;;;;;5030252;28;25052;-76
2021/08/24 01:53:35;;;;;;;6.15;4.38;;;15.00;99.90;;;;;;5002509;28;25064;-73
2021/08/24 01:56:23;;;;;;;6.15;4.47;;;15.00;99.90;;;;;;5009781;28;25140;-72
2021/08/24 01:58:52;;;;;;;5.47;4.25;;;14.90;99.90;;;;;;5009441;28;25163;-74
2021/08/24 02:01:24;;;;;;;8.98;4.55;;;14.90;99.90;;;;;;5005492;28;25078;-73
2021/08/24 02:04:01;;;;;;;4.78;3.85;;;14.90;99.90;;;;;;5006516;28;25049;-74
2021/08/24 02:06:35;;;;;;;9.95;4.38;;;14.80;99.90;;;;;;5008979;28;25071;-76
2021/08/24 02:09:05;;;;;;;6.30;4.70;;;14.80;99.90;;;;;;5010270;28;25078;-74
2021/08/24 02:11:33;;;;;;;5.03;4.53;;;14.70;99.90;;;;;;5010227;28;25105;-72
2021/08/24 02:14:05;;;;;;;10.20;4.80;;;14.60;99.90;;;;;;5009254;28;25072;-72
2021/08/24 02:16:33;;;;;;;8.88;4.55;;;14.60;99.90;;;;;;5009622;28;25063;-75
2021/08/24 02:19:07;;;;;;;6.75;4.70;;;14.60;99.90;;;;;;5006958;28;25090;-75
2021/08/24 02:21:43;;;;;;;7.95;5.13;;;14.70;99.90;;;;;;5010400;28;25077;-73
2021/08/24 02:24:13;;;;;;;8.95;5.25;;;14.60;99.90;;;;;;5009228;28;25165;-74
2021/08/24 02:26:40;;;;;;;7.07;4.78;;;14.60;99.90;;;;;;5007235;28;25068;-72
2021/08/24 02:29:06;;;;;;;8.15;5.28;;;14.50;99.90;;;;;;5010155;28;25070;-73
2021/08/24 02:31:58;;;;;;;7.05;5.55;;;14.50;99.90;;;;;;5010973;28;25147;-73
2021/08/24 02:34:53;;;;;;;8.93;5.40;;;14.50;99.90;;;;;;4993346;28;25077;-72
2021/08/24 02:37:33;;;;;;;7.20;5.20;;;14.50;99.90;;;;;;5004447;28;25068;-75
2021/08/24 02:40:21;;;;;;;7.32;5.32;;;14.50;99.90;;;;;;5006306;28;25090;-71
2021/08/24 02:43:12;;;;;;;8.68;5.22;;;14.60;99.90;;;;;;5006650;28;25121;-73
2021/08/24 02:45:43;;;;;;;11.27;6.13;;;14.60;99.90;;;;;;5008459;28;25071;-75
2021/08/24 02:48:12;;;;;;;19.15;6.68;;;14.60;99.90;;;;;;5010500;28;25064;-74
2021/08/24 02:50:40;;;;;;;9.93;5.93;;;14.50;99.90;;;;;;5014333;28;25067;-76
2021/08/24 02:53:06;;;;;;;9.95;6.20;;;14.50;99.90;;;;;;5025127;28;25085;-73
2021/08/24 02:55:31;;;;;;;14.38;6.00;;;14.40;99.90;;;;;;5027251;28;25088;-73
2021/08/24 02:57:57;;;;;;;9.50;6.45;;;14.50;99.90;;;;;;5026781;28;25147;-74
2021/08/24 03:00:22;;;;;;;12.48;6.20;;;14.50;99.90;;;;;;4992139;28;25058;-72
2021/08/24 03:02:48;;;;;;;13.00;6.78;;;14.50;99.90;;;;;;5009547;28;25062;-72
2021/08/24 03:05:14;;;;;;;9.35;7.00;;;14.40;99.90;;;;;;5017262;28;25113;-74
2021/08/24 03:07:41;;;;;;;8.50;6.72;;;14.30;99.90;;;;;;5008138;28;25142;-72
2021/08/24 03:10:14;;;;;;;10.25;6.65;;;14.30;99.90;;;;;;4993937;28;24811;-73
2021/08/24 03:13:03;;;;;;;8.45;7.00;;;14.20;99.90;;;;;;5008433;28;25143;-73
2021/08/24 03:15:45;;;;;;;10.65;6.63;;;14.20;99.90;;;;;;5009110;28;25052;-73
2021/08/24 03:18:20;;;;;;;;;;;14.20;99.90;;;;;;5008140;28;25067;-73
2021/08/24 03:20:49;;;;;;;10.60;7.18;;;14.10;99.90;;;;;;5006358;28;25075;-74
2021/08/24 03:23:17;;;;;;;10.10;7.22;;;14.10;99.90;;;;;;5009271;28;25104;-74
2021/08/24 03:25:44;;;;;;;13.48;7.25;;;14.10;99.90;;;;;;5009178;28;25176;-74
2021/08/24 03:28:15;;;;;;;11.93;6.60;;;14.00;99.90;;;;;;5008812;28;25116;-75
2021/08/24 03:30:41;;;;;;;12.20;6.72;;;14.10;99.90;;;;;;5008028;28;25170;-73
2021/08/24 03:33:07;;;;;;;11.43;7.20;;;14.10;99.90;;;;;;4991246;28;25142;-73
2021/08/24 03:35:33;;;;;;;7.47;6.47;;;14.20;99.90;;;;;;5008171;28;25074;-73
2021/08/24 03:37:58;;;;;;;11.52;6.75;;;14.10;99.90;;;;;;5007750;28;25129;-72
2021/08/24 03:40:24;;;;;;;10.70;6.70;;;14.10;99.90;;;;;;5011632;28;25147;-72
2021/08/24 03:42:50;;;;;;;10.13;7.38;;;14.10;99.90;;;;;;4999751;28;25123;-73
2021/08/24 03:45:15;;;;;;;11.27;7.57;;;14.10;99.90;;;;;;5010660;28;25164;-74
2021/08/24 03:47:41;;;;;;;11.48;7.60;;;14.10;99.90;;;;;;5009507;28;25168;-76
2021/08/24 03:50:07;;;;;;;11.07;7.57;;;14.00;99.90;;;;;;5011385;28;25153;-74
2021/08/24 03:52:34;;;;;;;11.75;7.82;;;14.00;99.90;;;;;;5012104;28;25074;-73
2021/08/24 03:54:59;;;;;;;10.65;7.47;;;14.00;99.90;;;;;;5012946;28;25100;-74
2021/08/24 03:57:25;;;;;;;10.93;7.25;;;14.10;99.90;;;;;;5021314;28;25057;-75
2021/08/24 03:59:57;;;;;;;12.85;8.00;;;14.10;99.90;;;;;;5030910;28;25057;-74
2021/08/24 04:02:24;;;;;;;13.43;8.93;;;14.10;99.90;;;;;;5032058;28;25059;-74
2021/08/24 04:04:50;;;;;;;13.02;8.35;;;14.00;99.90;;;;;;5014090;28;25080;-71
2021/08/24 04:07:16;;;;;;;13.07;8.00;;;14.00;99.90;;;;;;5031097;28;25100;-74
2021/08/24 04:09:41;;;;;;;17.08;8.73;;;14.10;99.90;;;;;;5029650;28;25120;-74
2021/08/24 04:12:08;;;;;;;16.77;8.48;;;14.10;99.90;;;;;;5031289;28;25079;-74
2021/08/24 04:14:34;;;;;;;14.18;9.32;;;14.00;99.90;;;;;;5031045;28;25056;-73
2021/08/24 04:17:00;;;;;;;14.50;8.95;;;14.00;99.90;;;;;;5031424;28;25098;-72
2021/08/24 04:19:25;;;;;;;16.67;9.70;;;14.00;99.90;;;;;;5031029;28;25061;-73
2021/08/24 04:21:51;;;;;;;19.67;9.63;;;14.00;99.90;;;;;;5032014;28;25070;-74
2021/08/24 04:24:17;;;;;;;16.17;8.45;;;14.00;99.90;;;;;;5029651;28;25090;-73
2021/08/24 04:26:42;;;;;;;15.82;9.18;;;14.00;99.90;;;;;;5018316;28;25100;-73
2021/08/24 04:29:08;;;;;;;18.98;9.65;;;14.10;99.90;;;;;;5012359;28;25072;-74
2021/08/24 04:31:38;;;;;;;12.90;9.40;;;14.00;99.90;;;;;;5010838;28;25078;-74
2021/08/24 04:34:05;;;;;;;19.88;10.55;;;14.00;99.90;;;;;;5013704;28;25125;-75
2021/08/24 04:36:31;;;;;;;18.70;9.05;;;14.00;99.90;;;;;;5010659;28;25067;-72
2021/08/24 04:38:56;;;;;;;17.85;10.23;;;14.10;99.90;;;;;;5002074;28;25061;-71
2021/08/24 04:41:22;;;;;;;15.00;9.52;;;14.10;99.90;;;;;;5006310;28;25154;-70
2021/08/24 04:43:48;;;;;;;16.30;9.55;;;14.10;99.90;;;;;;5002420;28;25099;-70
2021/08/24 04:46:13;;;;;;;25.95;10.35;;;14.10;99.90;;;;;;5010300;28;25100;-73
2021/08/24 04:48:39;;;;;;;17.33;9.00;;;14.10;99.90;;;;;;5008001;28;25109;-75
2021/08/24 04:51:04;;;;;;;16.90;10.52;;;14.20;99.90;;;;;;5007338;28;25091;-72
2021/08/24 04:53:30;;;;;;;23.45;10.32;;;14.10;99.90;;;;;;5007698;28;25053;-71
2021/08/24 04:55:56;;;;;;;19.15;11.05;;;14.20;99.90;;;;;;5007989;28;25115;-71
2021/08/24 04:58:22;;;;;;;16.33;10.48;;;14.10;99.90;;;;;;4991334;28;25063;-72
2021/08/24 05:00:48;;;;;;;25.23;12.20;;;14.20;99.90;;;;;;5007085;28;25064;-72
2021/08/24 05:03:14;;;;;;;19.95;11.90;;;14.20;99.90;;;;;;5007655;28;25068;-73
2021/08/24 05:05:39;;;;;;;23.67;12.43;;;14.20;99.90;;;;;;5007268;28;25058;-73
2021/08/24 05:08:05;;;;;;;20.05;12.63;;;14.20;99.90;;;;;;5006119;28;25067;-71
2021/08/24 05:10:32;;;;;;;18.35;12.10;;;14.10;99.90;;;;;;5007728;28;25064;-73
2021/08/24 05:12:59;;;;;;;28.27;13.02;;;14.20;99.90;;;;;;5007899;28;25089;-72
2021/08/24 05:15:26;;;;;;;21.30;12.10;;;14.20;99.90;;;;;;5007857;28;25074;-71
2021/08/24 05:17:52;;;;;;;19.88;12.00;;;14.20;99.90;;;;;;5007382;28;25060;-72
2021/08/24 05:20:18;;;;;;;22.45;12.48;;;14.20;99.90;;;;;;5006800;28;25065;-72
2021/08/24 05:22:45;;;;;;;20.95;13.05;;;14.30;99.90;;;;;;5007844;28;25055;-74
2021/08/24 05:25:12;;;;;;;18.27;11.98;;;14.30;99.90;;;;;;5007418;28;25078;-71
2021/08/24 05:27:38;;;;;;;18.35;11.27;;;14.40;99.90;;;;;;5006153;28;25058;-72
2021/08/24 05:30:07;;;;;;;18.08;10.90;;;14.40;99.90;;;;;;5007239;28;25062;-75
2021/08/24 05:32:32;;;;;;;15.95;10.85;;;14.40;99.90;;;;;;5007367;28;25055;-71
2021/08/24 05:34:58;;;;;;;15.68;11.27;;;14.40;99.90;;;;;;4989751;28;25064;-71
2021/08/24 05:37:23;;;;;;;16.60;11.07;;;14.40;99.90;;;;;;5003588;28;25118;-72
2021/08/24 05:39:49;;;;;;;19.33;11.63;;;14.40;99.90;;;;;;5007391;28;25094;-70
2021/08/24 05:42:15;;;;;;;18.38;11.23;;;14.40;99.90;;;;;;5001112;28;25081;-71
2021/08/24 05:44:40;;;;;;;17.50;11.07;;;14.50;99.90;;;;;;5007063;28;25074;-73
2021/08/24 05:47:06;;;;;;;15.43;10.90;;;14.50;99.90;;;;;;5006303;28;25064;-72
2021/08/24 05:49:33;;;;;;;16.80;11.43;;;14.60;99.90;;;;;;4990116;28;25055;-72
2021/08/24 05:52:00;;;;;;;19.10;11.60;;;14.60;99.90;;;;;;5007360;28;25060;-73
2021/08/24 05:54:25;;;;;;;21.52;11.60;;;14.60;99.90;;;;;;5008456;28;25111;-73
2021/08/24 05:56:52;;;;;;;20.88;11.95;;;14.70;99.90;;;;;;5007803;28;25106;-75
2021/08/24 05:59:18;;;;;;;17.30;10.85;;;14.80;99.90;;;;;;5007162;28;25089;-72
2021/08/24 06:01:44;;;;;;;17.33;12.23;;;14.80;99.90;;;;;;5005663;28;25141;-71
2021/08/24 06:04:09;;;;;;;16.52;11.15;;;14.80;99.90;;;;;;5005250;28;25068;-72
2021/08/24 06:06:39;;;;;;;24.33;10.90;;;14.80;99.90;;;;;;5004367;28;25056;-72
2021/08/24 06:09:07;;;;;;;19.75;11.77;;;14.90;99.90;;;;;;5005278;28;25071;-72
2021/08/24 06:11:36;;;;;;;21.13;12.20;;;15.00;99.90;;;;;;5005877;28;25069;-72
2021/08/24 06:14:04;;;;;;;25.10;13.30;;;15.00;99.90;;;;;;5006275;28;25120;-73
2021/08/24 06:16:31;;;;;;;18.38;11.40;;;15.00;99.90;;;;;;5007865;28;25094;-72
2021/08/24 06:18:57;;;;;;;18.33;11.63;;;15.00;99.90;;;;;;5008555;28;25079;-71
2021/08/24 06:21:22;;;;;;;27.55;11.40;;;15.10;99.90;;;;;;5008601;28;25057;-72
2021/08/24 06:23:49;;;;;;;22.25;12.00;;;15.20;99.90;;;;;;5008955;28;25053;-71
2021/08/24 06:26:15;;;;;;;18.58;10.75;;;15.20;99.90;;;;;;5009051;28;25133;-71
2021/08/24 06:28:41;;;;;;;17.50;10.35;;;15.20;99.90;;;;;;5009390;28;25115;-75
2021/08/24 06:31:07;;;;;;;17.75;10.25;;;15.30;99.90;;;;;;5008941;28;25093;-70
2021/08/24 06:33:38;;;;;;;17.15;11.27;;;15.40;99.90;;;;;;5010808;28;25049;-74
2021/08/24 06:36:05;;;;;;;17.95;10.80;;;15.40;99.90;;;;;;5009400;28;25070;-69
2021/08/24 06:38:31;;;;;;;22.10;10.98;;;15.40;99.90;;;;;;5009472;28;25061;-74
2021/08/24 06:40:58;;;;;;;21.08;11.38;;;15.50;99.90;;;;;;5010623;28;25068;-72
2021/08/24 06:43:24;;;;;;;21.10;10.55;;;15.50;99.90;;;;;;5010099;28;25084;-71
2021/08/24 06:45:49;;;;;;;13.68;9.88;;;15.60;99.90;;;;;;5009549;28;25094;-72
2021/08/24 06:48:16;;;;;;;18.77;10.77;;;15.60;99.90;;;;;;5009953;28;25088;-72
2021/08/24 06:50:42;;;;;;;20.70;9.93;;;15.70;99.90;;;;;;5010719;28;25055;-72
2021/08/24 06:53:09;;;;;;;14.02;9.98;;;15.70;99.90;;;;;;5009821;28;25135;-72
2021/08/24 06:55:37;;;;;;;15.52;9.07;;;15.70;99.90;;;;;;5008913;28;25142;-72
2021/08/24 06:58:05;;;;;;;16.02;9.88;;;15.90;99.90;;;;;;5008464;28;25218;-72
2021/08/24 07:00:30;;;;;;;17.45;10.43;;;15.90;99.90;;;;;;5010193;28;25105;-69
2021/08/24 07:02:57;;;;;;;18.25;9.85;;;15.90;99.90;;;;;;5015673;28;25129;-72
2021/08/24 07:05:29;;;;;;;15.48;8.95;;;16.00;99.90;;;;;;4992368;28;25084;-73
2021/08/24 07:07:55;;;;;;;13.48;9.13;;;16.00;99.90;;;;;;5009509;28;25101;-73
2021/08/24 07:10:22;;;;;;;18.20;9.40;;;16.10;99.90;;;;;;5009955;28;25101;-71
2021/08/24 07:12:47;;;;;;;17.25;9.48;;;16.10;99.90;;;;;;5009777;28;25100;-74
2021/08/24 07:15:16;;;;;;;17.33;9.82;;;16.10;99.90;;;;;;5012305;28;25150;-73
2021/08/24 07:17:42;;;;;;;14.68;9.20;;;16.20;99.90;;;;;;5011344;28;25092;-72
2021/08/24 07:20:12;;;;;;;21.88;10.30;;;16.20;99.90;;;;;;5011605;28;25064;-72
2021/08/24 07:22:38;;;;;;;15.15;8.40;;;16.30;99.90;;;;;;4996627;28;25058;-72
2021/08/24 07:25:07;;;;;;;15.50;9.35;;;16.30;99.90;;;;;;4992566;28;25064;-73
2021/08/24 07:27:33;;;;;;;17.40;9.32;;;16.40;99.90;;;;;;5006309;28;25121;-70
2021/08/24 07:29:58;;;;;;;15.48;7.80;;;16.50;99.90;;;;;;4998516;28;25119;-73
2021/08/24 07:32:24;;;;;;;15.35;8.38;;;16.60;99.90;;;;;;5010690;28;25140;-72
2021/08/24 07:34:50;;;;;;;14.43;8.23;;;16.60;99.90;;;;;;5010630;28;25067;-70
2021/08/24 07:37:16;;;;;;;14.13;8.23;;;16.60;99.90;;;;;;5011901;28;25071;-73
2021/08/24 07:39:43;;;;;;;16.75;8.23;;;16.70;99.90;;;;;;5013062;28;25099;-71
2021/08/24 07:42:10;;;;;;;17.33;8.77;;;16.80;99.90;;;;;;5013262;28;25084;-72
2021/08/24 07:44:36;;;;;;;13.25;7.63;;;16.80;99.90;;;;;;4993918;28;25100;-74
2021/08/24 07:47:06;;;;;;;12.73;8.00;;;16.90;99.90;;;;;;4992898;28;25100;-74
2021/08/24 07:49:35;;;;;;;12.07;7.15;;;17.00;99.90;;;;;;5011750;28;25084;-73
2021/08/24 07:52:06;;;;;;;13.05;6.88;;;17.00;99.90;;;;;;5011843;28;25090;-72
2021/08/24 07:54:32;;;;;;;12.82;7.65;;;17.00;99.90;;;;;;5011390;28;25097;-71
2021/08/24 07:56:58;;;;;;;14.80;7.13;;;16.90;99.90;;;;;;5009706;28;25051;-73
2021/08/24 07:59:23;;;;;;;12.13;6.88;;;16.80;99.90;;;;;;5012439;28;25061;-72
2021/08/24 08:01:51;;;;;;;15.88;8.18;;;16.90;99.90;;;;;;5014423;28;25077;-72
2021/08/24 08:04:19;;;;;;;12.68;7.10;;;17.10;99.90;;;;;;4998371;28;25062;-73
2021/08/24 08:06:44;;;;;;;17.00;7.80;;;17.20;99.90;;;;;;5023387;28;25050;-73
2021/08/24 08:09:10;;;;;;;13.30;7.75;;;17.00;99.90;;;;;;5025600;28;25146;-73
2021/08/24 08:11:36;;;;;;;11.77;7.55;;;17.00;99.90;;;;;;5024200;28;25077;-74
2021/08/24 08:14:02;;;;;;;17.30;7.55;;;17.00;99.90;;;;;;5030475;28;25032;-73
2021/08/24 08:16:28;;;;;;;13.63;7.32;;;17.20;99.90;;;;;;5028771;28;25053;-72
2021/08/24 08:18:53;;;;;;;11.68;6.70;;;17.30;99.90;;;;;;5028163;28;25097;-74
2021/08/24 08:21:20;;;;;;;14.90;8.32;;;17.30;99.90;;;;;;5029063;28;25067;-73
2021/08/24 08:23:46;;;;;;;12.52;8.38;;;17.40;99.90;;;;;;5030724;28;25059;-73
2021/08/24 08:26:12;;;;;;;11.80;6.05;;;17.30;99.90;;;;;;5030874;28;25066;-74
2021/08/24 08:28:43;;;;;;;15.75;6.70;;;17.40;99.90;;;;;;5032184;28;25110;-74
2021/08/24 08:31:12;;;;;;;12.97;6.27;;;17.50;99.90;;;;;;5028575;28;25061;-74
2021/08/24 08:33:38;;;;;;;12.05;6.03;;;17.80;99.90;;;;;;5025162;28;25079;-75
2021/08/24 08:36:04;;;;;;;11.82;6.32;;;17.90;99.90;;;;;;5025932;28;25061;-73
2021/08/24 08:38:29;;;;;;;7.40;5.13;;;17.80;99.90;;;;;;5020756;28;25094;-73
2021/08/24 08:41:04;;;;;;;10.05;5.32;;;17.90;99.90;;;;;;5015352;28;25071;-71
2021/08/24 08:44:06;;;;;;;11.52;5.75;;;17.90;99.90;;;;;;5019599;28;25067;-74
2021/08/24 08:46:44;;;;;;;9.88;5.63;;;18.20;99.90;;;;;;4951464;28;25061;-71
2021/08/24 08:49:12;;;;;;;6.80;4.57;;;18.20;99.90;;;;;;5008653;28;25041;-72
2021/08/24 08:51:45;;;;;;;9.52;5.00;;;18.50;99.90;;;;;;5022441;28;25118;-70
2021/08/24 08:54:18;;;;;;;12.05;6.90;;;18.70;99.90;;;;;;5020641;28;25087;-72
2021/08/24 08:56:57;;;;;;;9.77;6.15;;;18.60;99.90;;;;;;4995312;28;25051;-72
2021/08/24 08:59:40;;;;;;;9.73;5.43;;;18.60;99.90;;;;;;5012218;28;25131;-71
2021/08/24 09:02:30;;;;;;;10.10;5.45;;;18.70;99.90;;;;;;5014689;28;25124;-72
2021/08/24 09:04:59;;;;;;;11.40;5.95;;;18.90;99.90;;;;;;5013622;28;25105;-73
2021/08/24 09:07:31;;;;;;;10.55;6.03;;;19.00;99.90;;;;;;5012513;28;25063;-72
2021/08/24 09:09:57;;;;;;;9.10;5.72;;;19.00;99.90;;;;;;5001189;28;25077;-72
2021/08/24 09:12:27;;;;;;;10.20;6.22;;;18.80;99.90;;;;;;5008508;28;25076;-72
2021/08/24 09:14:54;;;;;;;12.55;6.35;;;18.50;99.90;;;;;;5009134;28;25089;-73
2021/08/24 09:17:37;;;;;;;12.73;6.75;;;18.60;99.90;;;;;;5006728;28;25056;-70
2021/08/24 09:20:20;;;;;;;13.60;6.85;;;18.70;99.90;;;;;;5009405;28;25114;-71
2021/08/24 09:22:47;;;;;;;11.30;5.82;;;18.70;99.90;;;;;;5009066;28;25150;-71
2021/08/24 09:25:25;;;;;;;10.57;6.57;;;18.60;99.90;;;;;;5009647;28;25101;-72
2021/08/24 09:28:22;;;;;;;9.48;6.47;;;18.50;99.90;;;;;;5007358;28;25059;-71
2021/08/24 09:30:48;;;;;;;7.78;4.82;;;18.40;99.90;;;;;;5009169;28;25066;-73
2021/08/24 09:33:14;;;;;;;10.57;5.25;;;18.50;99.90;;;;;;5009056;28;25068;-74
2021/08/24 09:35:43;;;;;;;8.63;4.90;;;18.60;99.90;;;;;;5009004;28;25147;-71
2021/08/24 09:38:34;;;;;;;8.80;5.30;;;18.90;99.90;;;;;;5009045;28;25059;-74
2021/08/24 09:41:19;;;;;;;8.93;5.80;;;18.90;99.90;;;;;;5005162;28;25110;-69
2021/08/24 09:43:45;;;;;;;9.50;5.32;;;19.00;99.90;;;;;;5001073;28;25067;-70
2021/08/24 09:46:16;;;;;;;10.05;5.45;;;19.00;99.90;;;;;;5008611;28;25157;-73
2021/08/24 09:49:01;;;;;;;13.87;5.37;;;19.20;99.90;;;;;;5011735;28;25056;-73
2021/08/24 09:51:38;;;;;;;10.15;4.90;;;19.20;99.90;;;;;;5012666;28;25064;-73
2021/08/24 09:54:33;;;;;;;13.02;5.45;;;19.30;99.90;;;;;;5013579;28;25089;-74
2021/08/24 09:57:11;;;;;;;10.60;4.82;;;19.30;99.90;;;;;;4986218;28;25073;-72
2021/08/24 09:59:45;;;;;;;11.50;4.75;;;19.40;99.90;;;;;;5027867;28;25062;-72
2021/08/24 10:02:32;;;;;;;7.90;5.50;;;19.40;99.90;;;;;;5014638;28;25048;-73
2021/08/24 10:04:58;;;;;;;9.63;5.22;;;19.50;99.90;;;;;;4995185;28;25130;-71
2021/08/24 10:07:44;;;;;;;8.70;4.63;;;19.50;99.90;;;;;;5013939;28;25151;-73
2021/08/24 10:10:24;;;;;;;11.80;4.13;;;19.80;99.90;;;;;;5012145;28;25090;-71
2021/08/24 10:12:51;;;;;;;8.20;4.68;;;19.80;99.90;;;;;;5012744;28;25089;-72
2021/08/24 10:15:27;;;;;;;7.28;4.32;;;19.90;99.90;;;;;;5015803;28;25084;-73
2021/08/24 10:18:04;;;;;;;8.43;4.35;;;19.90;99.90;;;;;;5011371;28;25084;-73
2021/08/24 10:20:34;;;;;;;7.75;3.90;;;19.90;99.90;;;;;;5011928;28;25076;-71
2021/08/24 10:23:04;;;;;;;7.00;4.00;;;19.90;99.90;;;;;;5012361;28;25127;-73
2021/08/24 10:25:47;;;;;;;8.23;3.97;;;20.00;99.90;;;;;;4982026;28;25112;-76
2021/08/24 10:28:19;;;;;;;9.23;4.13;;;19.80;99.90;;;;;;5000029;28;25059;-75
2021/08/24 10:30:48;;;;;;;;;;;19.80;99.90;;;;;;4993870;28;25123;-72
2021/08/24 10:33:22;;;;;;;9.40;4.05;;;19.80;99.90;;;;;;5011700;28;24072;-73
2021/08/24 10:35:55;;;;;;;11.38;3.92;;;19.80;99.90;;;;;;5012712;28;25060;-73
2021/08/24 10:38:58;;;;;;;9.18;4.20;;;19.90;99.90;;;;;;4998839;28;25063;-73
2021/08/24 10:41:32;;;;;;;10.02;3.70;;;20.20;99.90;;;;;;4996349;28;25056;-73
2021/08/24 10:44:04;;;;;;;6.88;3.97;;;20.30;99.90;;;;;;5006783;28;25071;-72
2021/08/24 10:46:30;;;;;;;5.15;3.13;;;20.20;99.90;;;;;;5012098;28;25126;-73
2021/08/24 10:48:56;;;;;;;12.82;3.53;;;20.20;99.90;;;;;;5011896;28;25137;-70
2021/08/24 10:51:51;;;;;;;7.68;4.18;;;20.00;99.90;;;;;;5011097;28;25147;-72
2021/08/24 10:54:29;;;;;;;4.53;3.25;;;20.00;99.90;;;;;;5010456;28;25187;-72
2021/08/24 10:57:23;;;;;;;5.50;2.95;;;20.00;99.90;;;;;;5010769;28;25145;-75
2021/08/24 11:00:21;;;;;;;6.60;3.38;;;20.20;99.90;;;;;;4982462;28;25067;-72
2021/08/24 11:03:06;;;;;;;4.72;2.53;;;20.30;99.90;;;;;;4990019;28;25076;-74
2021/08/24 11:05:55;;;;;;;5.13;2.60;;;20.50;99.90;;;;;;5000843;28;25104;-70
2021/08/24 11:08:44;;;;;;;6.35;2.78;;;20.30;99.90;;;;;;5010660;28;25081;-71
2021/08/24 11:11:30;;;;;;;7.88;3.10;;;20.10;99.90;;;;;;5009896;28;25118;-72
2021/08/24 11:14:09;;;;;;;4.55;2.80;;;20.40;99.90;;;;;;5000174;28;25157;-72
2021/08/24 11:16:49;;;;;;;5.25;3.13;;;20.40;99.90;;;;;;5009068;28;25145;-73
2021/08/24 11:19:39;;;;;;;7.47;3.65;;;20.40;99.90;;;;;;5003892;28;25076;-72
2021/08/24 11:22:10;;;;;;;12.43;3.70;;;20.50;99.90;;;;;;5003121;28;25077;-72
2021/08/24 11:25:09;;;;;;;11.38;4.60;;;20.60;99.90;;;;;;5010174;28;25111;-71
2021/08/24 11:28:03;;;;;;;6.78;3.17;;;20.70;99.90;;;;;;4992493;28;25112;-74
2021/08/24 11:30:39;;;;;;;6.57;3.42;;;21.00;99.90;;;;;;5009882;28;25094;-74
2021/08/24 11:33:16;;;;;;;5.78;3.45;;;21.20;99.90;;;;;;5007308;28;25110;-71
2021/08/24 11:35:53;;;;;;;8.20;3.92;;;21.30;99.90;;;;;;4991970;28;25059;-73
2021/08/24 11:38:26;;;;;;;8.77;2.80;;;20.80;99.90;;;;;;5009521;28;25162;-73
2021/08/24 11:41:07;;;;;;;9.82;3.35;;;20.80;99.90;;;;;;5011012;28;25104;-72
2021/08/24 11:43:45;;;;;;;7.60;3.67;;;21.30;99.90;;;;;;4992949;28;25068;-74
2021/08/24 11:46:20;;;;;;;7.65;3.63;;;21.10;99.90;;;;;;5012116;28;25067;-74
2021/08/24 11:48:50;;;;;;;5.75;3.53;;;21.10;99.90;;;;;;5010696;28;25095;-73
2021/08/24 11:51:25;;;;;;;14.93;4.18;;;21.10;99.90;;;;;;4996109;28;25088;-73
2021/08/24 11:54:25;;;;;;;8.40;3.78;;;21.30;99.90;;;;;;5011335;28;25094;-75
2021/08/24 11:57:18;;;;;;;9.63;3.13;;;21.20;99.90;;;;;;4994779;28;25084;-76
2021/08/24 11:59:46;;;;;;;18.15;3.85;;;21.00;99.90;;;;;;5007262;28;25096;-72
2021/08/24 12:02:21;;;;;;;15.50;3.50;;;21.50;99.90;;;;;;5010611;28;25110;-75
2021/08/24 12:04:48;;;;;;;7.07;3.65;;;22.00;99.90;;;;;;5012023;28;25094;-73
2021/08/24 12:07:33;;;;;;;5.82;2.92;;;21.70;99.90;;;;;;5018165;28;25101;-76
2021/08/24 12:10:04;;;;;;;5.85;2.80;;;21.10;99.90;;;;;;5026855;28;25052;-77
2021/08/24 12:12:30;;;;;;;4.20;3.05;;;21.20;99.90;;;;;;5024591;28;25076;-75
2021/08/24 12:14:59;;;;;;;6.03;3.22;;;21.10;99.90;;;;;;5016235;28;25066;-73
2021/08/24 12:17:29;;;;;;;6.45;2.92;;;20.90;99.90;;;;;;5012284;28;25082;-75
2021/08/24 12:20:27;;;;;;;4.93;3.25;;;20.90;99.90;;;;;;5012339;28;25108;-73
2021/08/24 12:23:04;;;;;;;9.32;3.60;;;21.10;99.90;;;;;;5011416;28;25066;-75
2021/08/24 12:25:38;;;;;;;5.57;3.05;;;21.50;99.90;;;;;;4993120;28;25108;-72
2021/08/24 12:28:15;;;;;;;7.20;3.05;;;21.50;99.90;;;;;;4998067;28;25106;-76
2021/08/24 12:30:57;;;;;;;7.55;3.42;;;21.10;99.90;;;;;;5010570;28;25098;-74
2021/08/24 12:33:41;;;;;;;6.07;2.85;;;21.10;99.90;;;;;;5011449;28;25052;-73
2021/08/24 12:36:19;;;;;;;4.15;2.50;;;21.20;99.90;;;;;;5009962;28;25079;-74
2021/08/24 12:38:51;;;;;;;8.02;3.50;;;21.20;99.90;;;;;;5009617;28;25057;-73
2021/08/24 12:41:34;;;;;;;10.52;2.97;;;21.10;99.90;;;;;;5010291;28;25119;-73
2021/08/24 12:44:12;;;;;;;9.90;2.50;;;20.90;99.90;;;;;;5012746;28;25070;-74
2021/08/24 12:46:42;;;;;;;5.28;2.50;;;21.10;99.90;;;;;;5010238;28;25057;-74
2021/08/24 12:49:17;;;;;;;8.25;2.90;;;21.10;99.90;;;;;;5010509;28;25064;-71
2021/08/24 12:52:18;;;;;;;4.18;2.63;;;21.30;99.90;;;;;;5010975;28;25132;-72
2021/08/24 12:54:52;;;;;;;6.70;2.97;;;21.70;99.90;;;;;;4930538;29;25147;-76
2021/08/24 12:57:29;;;;;;;5.03;2.17;;;21.80;99.90;;;;;;4998153;28;25146;-71
2021/08/24 13:00:09;;;;;;;4.57;2.70;;;21.70;99.90;;;;;;5010359;28;25271;-72
2021/08/24 13:02:36;;;;;;;8.82;3.22;;;21.70;99.90;;;;;;5011073;28;25141;-74
2021/08/24 13:05:23;;;;;;;4.15;2.25;;;21.20;99.90;;;;;;5009720;28;25083;-75